createdAt,value
2019-04-16T00:01:34.915Z,15.40
2019-04-16T00:05:48.053Z,16.23
2019-04-16T00:10:06.203Z,14.37
2019-04-16T00:14:31.730Z,13.63
2019-04-16T00:18:38.424Z,13.43
2019-04-16T00:22:52.013Z,14.60
2019-04-16T00:26:59.994Z,14.20
2019-04-16T00:31:07.010Z,13.40
2019-04-16T00:35:15.768Z,14.97
2019-04-16T00:39:24.809Z,13.80
2019-04-16T00:43:30.824Z,18.73
2019-04-16T00:47:37.657Z,13.50
2019-04-16T00:51:44.413Z,13.47
2019-04-16T00:55:51.173Z,14.63
2019-04-16T00:59:58.125Z,14.40
2019-04-16T01:04:05.542Z,12.50
2019-04-16T01:08:12.786Z,13.80
2019-04-16T01:12:19.623Z,13.90
2019-04-16T01:16:26.504Z,14.73
2019-04-16T01:20:34.677Z,15.70
2019-04-16T01:24:41.449Z,14.67
2019-04-16T01:29:07.130Z,12.23
2019-04-16T01:33:19.994Z,13.50
2019-04-16T01:38:00.757Z,14.60
2019-04-16T01:42:07.592Z,14.07
2019-04-16T01:46:14.336Z,13.07
2019-04-16T01:50:21.067Z,17.30
2019-04-16T01:54:27.858Z,13.57
2019-04-16T01:58:34.910Z,13.63
2019-04-16T02:02:43.538Z,14.53
2019-04-16T02:06:50.938Z,14.60
2019-04-16T02:10:58.186Z,13.07
2019-04-16T02:15:07.512Z,13.53
2019-04-16T02:19:14.633Z,13.10
2019-04-16T02:23:21.561Z,16.50
2019-04-16T02:27:29.681Z,13.00
2019-04-16T02:31:36.444Z,14.80
2019-04-16T02:35:43.298Z,11.87
2019-04-16T02:39:50.293Z,14.17
2019-04-16T02:43:57.339Z,13.53
2019-04-16T02:48:05.516Z,12.67
2019-04-16T02:52:37.066Z,13.17
2019-04-16T02:57:01.437Z,13.97
2019-04-16T03:01:25.797Z,13.10
2019-04-16T03:05:35.211Z,14.57
2019-04-16T03:09:42.204Z,12.63
2019-04-16T03:13:49.315Z,15.60
2019-04-16T03:17:56.115Z,14.50
2019-04-16T03:22:03.355Z,13.57
2019-04-16T03:26:16.375Z,15.63
2019-04-16T03:30:19.957Z,14.50
2019-04-16T03:34:26.711Z,14.13
2019-04-16T03:38:36.754Z,14.80
2019-04-16T03:42:41.890Z,14.73
2019-04-16T03:46:48.675Z,15.93
2019-04-16T03:50:55.358Z,13.37
2019-04-16T03:55:02.236Z,14.57
2019-04-16T03:59:11.825Z,14.73
2019-04-16T04:03:17.458Z,15.07
2019-04-16T04:07:24.185Z,15.47
2019-04-16T04:11:31.887Z,14.33
2019-04-16T04:15:38.638Z,16.70
2019-04-16T04:19:46.132Z,14.40
2019-04-16T04:23:53.590Z,14.30
2019-04-16T04:28:00.303Z,14.23
2019-04-16T04:32:07.060Z,16.17
2019-04-16T04:36:13.810Z,15.70
2019-04-16T04:40:20.506Z,13.57
2019-04-16T04:44:36.935Z,11.77
2019-04-16T04:48:42.588Z,15.90
2019-04-16T04:52:53.534Z,13.70
2019-04-16T04:57:03.373Z,13.77
2019-04-16T05:01:13.357Z,14.80
2019-04-16T05:05:30.726Z,16.43
2019-04-16T05:09:37.513Z,15.10
2019-04-16T05:13:44.496Z,13.33
2019-04-16T05:17:51.229Z,15.73
2019-04-16T05:21:58.001Z,15.17
2019-04-16T05:26:05.395Z,15.20
2019-04-16T05:30:12.351Z,14.73
2019-04-16T05:34:19.055Z,12.33
2019-04-16T05:38:25.775Z,12.30
2019-04-16T05:42:32.539Z,13.30
2019-04-16T05:46:41.378Z,14.17
2019-04-16T05:50:47.797Z,14.87
2019-04-16T05:55:17.962Z,13.43
2019-04-16T05:59:22.774Z,14.63
2019-04-16T06:03:29.477Z,15.23
2019-04-16T06:07:37.979Z,15.00
2019-04-16T06:11:44.743Z,16.97
2019-04-16T06:16:01.816Z,16.80
2019-04-16T06:20:27.492Z,13.73
2019-04-16T06:24:51.459Z,14.37
2019-04-16T06:29:11.532Z,12.23
2019-04-16T06:33:22.495Z,14.93
2019-04-16T06:37:35.067Z,14.47
2019-04-16T06:42:01.064Z,15.17
2019-04-16T06:46:33.827Z,18.03
2019-04-16T06:51:02.403Z,13.63
2019-04-16T06:55:28.923Z,15.03
2019-04-16T06:59:59.499Z,13.77
2019-04-16T07:04:30.923Z,13.10
2019-04-16T07:08:59.598Z,13.73
2019-04-16T07:13:10.247Z,13.90
2019-04-16T07:17:17.309Z,13.00
2019-04-16T07:21:23.315Z,12.90
2019-04-16T07:25:30.524Z,13.57
2019-04-16T07:30:04.891Z,14.37
2019-04-16T07:34:27.387Z,12.90
2019-04-16T07:38:50.063Z,15.00
2019-04-16T07:43:30.948Z,12.77
2019-04-16T07:48:09.717Z,15.73
2019-04-16T07:52:35.900Z,16.20
2019-04-16T07:56:44.901Z,14.67
2019-04-16T08:00:51.783Z,13.23
2019-04-16T08:04:58.574Z,14.30
2019-04-16T08:09:07.490Z,15.53
2019-04-16T08:13:19.325Z,16.40
2019-04-16T08:17:26.191Z,15.47
2019-04-16T08:21:32.911Z,16.13
2019-04-16T08:25:39.643Z,15.77
2019-04-16T08:29:46.759Z,15.23
2019-04-16T08:33:54.519Z,14.60
2019-04-16T08:38:01.730Z,14.50
2019-04-16T08:42:08.569Z,17.30
2019-04-16T08:46:15.401Z,14.57
2019-04-16T08:50:25.888Z,13.20
2019-04-16T08:54:31.722Z,15.07
2019-04-16T08:58:39.140Z,14.77
2019-04-16T09:02:46.000Z,14.03
2019-04-16T09:06:52.668Z,16.37
2019-04-16T09:11:00.256Z,13.57
2019-04-16T09:15:09.968Z,16.00
2019-04-16T09:19:17.774Z,16.33
2019-04-16T09:23:26.588Z,15.23
2019-04-16T09:27:45.039Z,14.17
2019-04-16T09:32:04.272Z,14.67
2019-04-16T09:36:42.042Z,13.63
2019-04-16T09:41:07.649Z,14.50
2019-04-16T09:45:18.406Z,14.50
2019-04-16T09:49:26.172Z,13.67
2019-04-16T09:53:34.530Z,13.10
2019-04-16T09:57:41.302Z,13.47
2019-04-16T10:01:50.962Z,14.67
2019-04-16T10:05:57.756Z,14.47
2019-04-16T10:10:05.277Z,14.63
2019-04-16T10:14:12.086Z,13.43
2019-04-16T10:18:18.860Z,12.73
2019-04-16T10:22:25.594Z,13.40
2019-04-16T10:26:32.328Z,13.67
2019-04-16T10:30:46.859Z,13.50
2019-04-16T10:34:54.261Z,14.07
2019-04-16T10:39:20.006Z,14.43
2019-04-16T10:44:00.849Z,14.20
2019-04-16T10:48:23.200Z,13.77
2019-04-16T10:52:47.961Z,12.87
2019-04-16T10:57:25.848Z,13.43
2019-04-16T11:01:39.536Z,13.77
2019-04-16T11:05:56.865Z,12.00
2019-04-16T11:09:59.990Z,14.57
2019-04-16T11:14:06.809Z,12.97
2019-04-16T11:18:14.570Z,13.03
2019-04-16T11:22:21.307Z,11.27
2019-04-16T11:26:28.100Z,12.63
2019-04-16T11:30:40.934Z,11.40
2019-04-16T11:34:48.636Z,11.33
2019-04-16T11:38:55.373Z,11.53
2019-04-16T11:43:03.838Z,10.43
2019-04-16T11:47:10.811Z,12.23
2019-04-16T11:51:17.711Z,9.87
2019-04-16T11:55:24.408Z,10.60
2019-04-16T11:59:31.186Z,12.10
2019-04-16T12:03:49.403Z,12.07
2019-04-16T12:08:18.943Z,10.60
2019-04-16T12:12:52.838Z,10.70
2019-04-16T12:17:18.688Z,9.40
2019-04-16T12:21:53.345Z,10.37
2019-04-16T12:26:20.463Z,9.83
2019-04-16T12:30:55.118Z,11.80
2019-04-16T12:35:26.653Z,10.10
2019-04-16T12:39:45.693Z,9.97
2019-04-16T12:43:58.298Z,10.37
2019-04-16T12:48:14.392Z,11.00
2019-04-16T12:52:40.076Z,11.10
2019-04-16T12:57:17.586Z,11.67
2019-04-16T13:01:43.296Z,12.13
2019-04-16T13:06:12.247Z,11.07
2019-04-16T13:10:44.334Z,10.40
2019-04-16T13:15:13.515Z,11.73
2019-04-16T13:19:45.284Z,10.23
2019-04-16T13:23:58.643Z,11.57
2019-04-16T13:28:05.703Z,10.90
2019-04-16T13:32:13.567Z,10.37
2019-04-16T13:36:20.214Z,10.40
2019-04-16T13:40:27.827Z,12.30
2019-04-16T13:44:40.691Z,10.50
2019-04-16T13:48:52.098Z,10.43
2019-04-16T13:53:07.384Z,12.83
2019-04-16T13:57:16.960Z,12.93
2019-04-16T14:01:26.566Z,13.47
2019-04-16T14:05:37.549Z,12.53
2019-04-16T14:09:44.259Z,12.07
2019-04-16T14:13:50.402Z,13.00
2019-04-16T14:17:59.762Z,14.80
2019-04-16T14:22:06.025Z,15.73
2019-04-16T14:26:12.811Z,17.23
2019-04-16T14:30:27.574Z,12.37
2019-04-16T14:35:00.866Z,16.07
2019-04-16T14:39:36.541Z,14.97
2019-04-16T14:43:45.982Z,14.80
2019-04-16T14:47:52.961Z,13.70
2019-04-16T14:52:02.045Z,14.37
2019-04-16T14:56:15.632Z,12.37
2019-04-16T15:00:36.171Z,12.47
2019-04-16T15:05:00.468Z,12.03
2019-04-16T15:09:33.103Z,11.83
2019-04-16T15:14:00.512Z,11.90
2019-04-16T15:18:26.794Z,13.13
2019-04-16T15:22:54.639Z,13.03
2019-04-16T15:27:20.196Z,14.80
2019-04-16T15:31:41.838Z,13.00
2019-04-16T15:35:53.489Z,14.50
2019-04-16T15:40:07.003Z,16.00
2019-04-16T15:44:25.390Z,13.63
2019-04-16T15:48:44.443Z,14.33
2019-04-16T15:53:03.273Z,18.53
2019-04-16T15:57:31.449Z,13.40
2019-04-16T16:01:51.948Z,13.47
2019-04-16T16:06:04.285Z,13.43
2019-04-16T16:10:19.495Z,22.90
2019-04-16T16:14:26.257Z,12.90
2019-04-16T16:18:35.715Z,16.10
2019-04-16T16:22:41.386Z,16.37
2019-04-16T16:26:48.107Z,15.00
2019-04-16T16:30:54.870Z,13.47
2019-04-16T16:35:01.549Z,14.97
2019-04-16T16:39:09.638Z,17.33
2019-04-16T16:43:18.050Z,13.53
2019-04-16T16:47:28.969Z,14.13
2019-04-16T16:51:35.948Z,14.60
2019-04-16T16:55:46.250Z,15.03
2019-04-16T16:59:57.950Z,13.93
2019-04-16T17:04:16.426Z,15.73
2019-04-16T17:08:23.247Z,14.97
2019-04-16T17:12:30.038Z,16.70
2019-04-16T17:16:37.235Z,14.93
2019-04-16T17:20:43.861Z,17.83
2019-04-16T17:24:50.602Z,17.93
2019-04-16T17:28:58.281Z,17.50
2019-04-16T17:33:05.152Z,17.23
2019-04-16T17:37:11.823Z,17.87
2019-04-16T17:41:24.385Z,18.90
2019-04-16T17:46:05.340Z,19.33
2019-04-16T17:50:40.320Z,18.07
2019-04-16T17:54:51.975Z,20.70
2019-04-16T17:59:14.438Z,19.70
2019-04-16T18:03:37.595Z,18.73
2019-04-16T18:08:09.510Z,17.53
2019-04-16T18:12:35.956Z,16.53
2019-04-16T18:16:54.132Z,16.73
2019-04-16T18:21:21.679Z,16.00
2019-04-16T18:25:55.521Z,15.30
2019-04-16T18:30:38.756Z,16.17
2019-04-16T18:35:05.863Z,15.63
2019-04-16T18:39:30.188Z,16.47
2019-04-16T18:43:54.275Z,17.23
2019-04-16T18:48:13.735Z,16.47
2019-04-16T18:52:18.481Z,17.87
2019-04-16T18:56:25.153Z,9.47
2019-04-16T19:00:52.741Z,8.57
2019-04-16T19:04:59.715Z,9.37
2019-04-16T19:09:08.434Z,6.67
2019-04-16T19:13:19.939Z,6.90
2019-04-16T19:17:25.833Z,6.33
2019-04-16T19:21:32.569Z,6.37
2019-04-16T19:25:39.250Z,5.70
2019-04-16T19:29:46.165Z,5.57
2019-04-16T19:33:53.076Z,9.07
2019-04-16T19:38:02.348Z,5.10
2019-04-16T19:42:11.201Z,5.33
2019-04-16T19:46:17.053Z,4.70
2019-04-16T19:50:23.749Z,5.17
2019-04-16T19:54:31.801Z,5.00
2019-04-16T19:58:38.594Z,5.13
2019-04-16T20:02:45.360Z,4.97
2019-04-16T20:06:52.210Z,5.03
2019-04-16T20:10:58.894Z,5.00
2019-04-16T20:15:09.350Z,4.67
2019-04-16T20:19:14.499Z,4.13
2019-04-16T20:23:21.165Z,4.97
2019-04-16T20:27:28.171Z,4.53
2019-04-16T20:31:36.583Z,4.87
2019-04-16T20:35:43.347Z,4.23
2019-04-16T20:39:50.014Z,6.40
2019-04-16T20:43:57.084Z,4.40
2019-04-16T20:48:03.782Z,3.67
2019-04-16T20:52:10.495Z,3.80
2019-04-16T20:56:20.477Z,4.10
2019-04-16T21:00:28.899Z,3.83
2019-04-16T21:04:35.527Z,4.60
2019-04-16T21:08:42.296Z,3.83
2019-04-16T21:12:48.950Z,6.77
2019-04-16T21:16:55.696Z,3.97
2019-04-16T21:21:02.544Z,3.97
2019-04-16T21:25:13.800Z,3.83
2019-04-16T21:29:26.325Z,4.10
2019-04-16T21:33:49.177Z,3.60
2019-04-16T21:38:17.717Z,4.50
2019-04-16T21:42:25.466Z,4.23
2019-04-16T21:46:32.508Z,4.60
2019-04-16T21:50:39.507Z,4.53
2019-04-16T21:54:46.304Z,4.50
2019-04-16T21:58:53.083Z,4.53
2019-04-16T22:02:59.791Z,4.50
2019-04-16T22:07:07.973Z,4.27
2019-04-16T22:11:15.495Z,4.50
2019-04-16T22:15:25.208Z,3.93
2019-04-16T22:19:30.890Z,3.90
2019-04-16T22:23:37.576Z,3.80
2019-04-16T22:27:44.314Z,4.60
2019-04-16T22:31:52.815Z,4.60
2019-04-16T22:35:59.576Z,4.30
2019-04-16T22:40:28.370Z,4.03
2019-04-16T22:44:54.398Z,3.57
2019-04-16T22:49:01.729Z,4.27
2019-04-16T22:53:08.401Z,3.93
2019-04-16T22:57:16.313Z,3.80
2019-04-16T23:01:25.073Z,4.40
2019-04-16T23:05:32.000Z,3.77
2019-04-16T23:09:38.796Z,4.20
2019-04-16T23:13:45.559Z,4.00
2019-04-16T23:17:55.288Z,3.67
2019-04-16T23:22:02.090Z,3.80
2019-04-16T23:26:08.796Z,3.80
2019-04-16T23:30:15.746Z,3.30
2019-04-16T23:34:24.070Z,4.27
2019-04-16T23:38:31.682Z,3.80
2019-04-16T23:42:41.331Z,3.87
2019-04-16T23:47:09.225Z,3.67
2019-04-16T23:51:28.665Z,3.70
2019-04-16T23:56:10.072Z,3.57
